createdAt,value
2023-05-25T00:01:06.006Z,20.50
2023-05-25T00:03:33.864Z,20.48
2023-05-25T00:06:01.761Z,20.49
2023-05-25T00:08:29.451Z,20.51
2023-05-25T00:10:57.044Z,20.46
2023-05-25T00:13:24.642Z,20.46
2023-05-25T00:15:51.877Z,20.50
2023-05-25T00:18:19.485Z,20.50
2023-05-25T00:20:47.651Z,20.49
2023-05-25T00:23:15.180Z,20.53
2023-05-25T00:25:43.069Z,20.51
2023-05-25T00:28:11.087Z,20.51
2023-05-25T00:30:38.450Z,20.41
2023-05-25T00:33:06.909Z,20.35
2023-05-25T00:35:34.211Z,20.38
2023-05-25T00:38:01.423Z,20.33
2023-05-25T00:40:28.949Z,20.29
2023-05-25T00:42:56.265Z,20.27
2023-05-25T00:45:23.652Z,20.16
2023-05-25T00:47:54.243Z,20.18
2023-05-25T00:50:23.224Z,20.13
2023-05-25T00:52:51.683Z,20.05
2023-05-25T00:55:18.983Z,20.10
2023-05-25T00:57:46.254Z,20.11
2023-05-25T01:00:14.158Z,20.00
2023-05-25T01:02:42.566Z,20.01
2023-05-25T01:05:09.899Z,20.03
2023-05-25T01:07:37.720Z,20.03
2023-05-25T01:10:08.177Z,19.93
2023-05-25T01:12:36.673Z,19.90
2023-05-25T01:15:04.802Z,19.88
2023-05-25T01:17:32.512Z,19.85
2023-05-25T01:20:09.575Z,19.79
2023-05-25T01:22:40.480Z,19.82
2023-05-25T01:25:09.639Z,19.87
2023-05-25T01:27:38.471Z,19.73
2023-05-25T01:30:07.015Z,19.79
2023-05-25T01:32:35.376Z,19.81
2023-05-25T01:35:03.575Z,19.66
2023-05-25T01:37:32.116Z,19.65
2023-05-25T01:39:59.364Z,19.58
2023-05-25T01:42:26.544Z,19.59
2023-05-25T01:44:54.112Z,19.73
2023-05-25T01:47:21.591Z,19.68
2023-05-25T01:49:55.016Z,19.57
2023-05-25T01:52:22.955Z,19.66
2023-05-25T01:54:55.212Z,19.58
2023-05-25T01:57:24.374Z,19.48
2023-05-25T01:59:51.749Z,19.61
2023-05-25T02:02:19.121Z,19.45
2023-05-25T02:04:46.837Z,19.44
2023-05-25T02:07:14.273Z,19.35
2023-05-25T02:09:41.506Z,19.46
2023-05-25T02:12:09.261Z,19.35
2023-05-25T02:14:36.499Z,19.44
2023-05-25T02:17:04.011Z,19.29
2023-05-25T02:19:31.602Z,19.33
2023-05-25T02:21:58.818Z,19.29
2023-05-25T02:24:26.054Z,19.29
2023-05-25T02:26:53.592Z,19.34
2023-05-25T02:29:21.015Z,19.27
2023-05-25T02:31:48.278Z,19.11
2023-05-25T02:34:16.306Z,19.22
2023-05-25T02:36:43.988Z,19.24
2023-05-25T02:39:11.402Z,19.21
2023-05-25T02:41:39.053Z,19.12
2023-05-25T02:44:07.358Z,19.12
2023-05-25T02:46:34.775Z,19.17
2023-05-25T02:49:02.334Z,19.15
2023-05-25T02:51:29.670Z,19.18
2023-05-25T02:53:57.055Z,19.07
2023-05-25T02:56:24.610Z,18.97
2023-05-25T02:58:51.877Z,19.03
2023-05-25T03:01:19.607Z,18.94
2023-05-25T03:03:47.611Z,19.07
2023-05-25T03:06:14.872Z,18.97
2023-05-25T03:08:43.563Z,18.92
2023-05-25T03:11:11.064Z,19.07
2023-05-25T03:13:39.259Z,19.13
2023-05-25T03:16:06.633Z,19.11
2023-05-25T03:18:34.756Z,19.14
2023-05-25T03:21:01.974Z,19.14
2023-05-25T03:23:32.096Z,19.21
2023-05-25T03:26:03.671Z,19.19
2023-05-25T03:28:31.035Z,19.14
2023-05-25T03:30:58.346Z,19.23
2023-05-25T03:33:28.392Z,19.35
2023-05-25T03:35:55.773Z,19.39
2023-05-25T03:38:23.670Z,19.44
2023-05-25T03:40:51.156Z,19.52
2023-05-25T03:43:18.405Z,19.39
2023-05-25T03:45:46.098Z,19.51
2023-05-25T03:48:13.742Z,19.51
2023-05-25T03:50:41.820Z,19.53
2023-05-25T03:53:09.563Z,19.60
2023-05-25T03:55:37.011Z,19.58
2023-05-25T03:58:04.182Z,19.59
2023-05-25T04:00:31.392Z,19.63
2023-05-25T04:02:59.173Z,19.68
2023-05-25T04:05:26.657Z,19.73
2023-05-25T04:07:53.927Z,19.71
2023-05-25T04:10:21.518Z,19.72
2023-05-25T04:12:48.690Z,19.72
2023-05-25T04:15:17.150Z,19.71
2023-05-25T04:17:45.164Z,19.78
2023-05-25T04:20:12.479Z,19.75
2023-05-25T04:22:40.044Z,19.87
2023-05-25T04:25:08.374Z,20.03
2023-05-25T04:27:35.760Z,20.14
2023-05-25T04:30:04.427Z,20.38
2023-05-25T04:32:37.189Z,20.47
2023-05-25T04:35:05.955Z,20.60
2023-05-25T04:37:36.967Z,20.52
2023-05-25T04:40:22.965Z,20.58
2023-05-25T04:42:53.997Z,20.64
2023-05-25T04:45:21.599Z,20.56
2023-05-25T04:47:49.898Z,20.57
2023-05-25T04:50:17.651Z,20.68
2023-05-25T04:52:45.182Z,20.73
2023-05-25T04:55:12.567Z,20.72
2023-05-25T04:57:40.255Z,20.71
2023-05-25T05:00:09.899Z,20.88
2023-05-25T05:02:38.045Z,20.87
2023-05-25T05:05:06.624Z,20.99
2023-05-25T05:07:34.081Z,21.20
2023-05-25T05:10:01.709Z,21.24
2023-05-25T05:12:29.726Z,21.33
2023-05-25T05:14:57.543Z,21.16
2023-05-25T05:17:26.429Z,21.38
2023-05-25T05:19:54.270Z,21.32
2023-05-25T05:22:21.573Z,21.52
2023-05-25T05:24:48.961Z,21.45
2023-05-25T05:27:17.134Z,21.54
2023-05-25T05:29:44.786Z,21.59
2023-05-25T05:32:12.488Z,21.67
2023-05-25T05:34:40.077Z,21.64
2023-05-25T05:37:07.612Z,21.66
2023-05-25T05:39:36.247Z,21.66
2023-05-25T05:42:05.062Z,21.90
2023-05-25T05:44:32.331Z,21.96
2023-05-25T05:47:02.286Z,21.89
2023-05-25T05:49:30.478Z,21.81
2023-05-25T05:51:58.145Z,21.94
2023-05-25T05:54:27.729Z,22.03
2023-05-25T05:56:55.429Z,21.85
2023-05-25T05:59:22.730Z,22.04
2023-05-25T06:01:50.225Z,22.06
2023-05-25T06:04:18.672Z,22.01
2023-05-25T06:06:46.212Z,21.90
2023-05-25T06:09:13.761Z,22.00
2023-05-25T06:11:41.379Z,22.03
2023-05-25T06:14:08.714Z,22.15
2023-05-25T06:16:36.701Z,22.26
2023-05-25T06:19:04.565Z,22.34
2023-05-25T06:21:31.772Z,22.30
2023-05-25T06:23:59.036Z,22.46
2023-05-25T06:26:27.318Z,22.48
2023-05-25T06:28:55.074Z,22.84
2023-05-25T06:31:22.395Z,22.90
2023-05-25T06:33:49.950Z,23.16
2023-05-25T06:36:17.396Z,23.40
2023-05-25T06:38:45.182Z,23.50
2023-05-25T06:41:15.259Z,23.51
2023-05-25T06:43:43.034Z,23.54
2023-05-25T06:46:11.530Z,23.91
2023-05-25T06:48:39.187Z,23.89
2023-05-25T06:51:06.468Z,24.05
2023-05-25T06:53:33.692Z,24.17
2023-05-25T06:56:01.208Z,24.28
2023-05-25T06:58:28.420Z,24.22
2023-05-25T07:00:55.710Z,24.27
2023-05-25T07:03:23.226Z,24.30
2023-05-25T07:05:50.482Z,24.24
2023-05-25T07:08:17.757Z,24.36
2023-05-25T07:10:45.394Z,24.63
2023-05-25T07:13:13.658Z,24.52
2023-05-25T07:15:41.053Z,24.61
2023-05-25T07:18:12.520Z,24.78
2023-05-25T07:20:42.307Z,24.81
2023-05-25T07:23:10.659Z,24.99
2023-05-25T07:25:38.133Z,25.23
2023-05-25T07:28:05.361Z,25.20
2023-05-25T07:30:33.038Z,25.15
2023-05-25T07:33:01.032Z,25.31
2023-05-25T07:35:28.299Z,25.09
2023-05-25T07:37:56.461Z,25.25
2023-05-25T07:40:23.722Z,25.54
2023-05-25T07:42:51.453Z,25.57
2023-05-25T07:45:18.950Z,25.65
2023-05-25T07:47:46.224Z,25.80
2023-05-25T07:50:13.944Z,25.71
2023-05-25T07:52:41.827Z,25.89
2023-05-25T07:55:09.311Z,25.82
2023-05-25T07:57:36.672Z,26.23
2023-05-25T08:00:08.279Z,26.12
2023-05-25T08:02:40.323Z,26.40
2023-05-25T08:05:08.282Z,26.37
2023-05-25T08:07:35.878Z,26.35
2023-05-25T08:10:03.433Z,26.35
2023-05-25T08:12:46.851Z,26.38
2023-05-25T08:15:16.607Z,26.20
2023-05-25T08:17:44.547Z,26.26
2023-05-25T08:20:12.458Z,26.17
2023-05-25T08:22:39.873Z,26.16
2023-05-25T08:25:08.149Z,26.07
2023-05-25T08:27:36.195Z,26.00
2023-05-25T08:30:05.838Z,26.09
2023-05-25T08:32:33.515Z,26.33
2023-05-25T08:35:01.912Z,26.42
2023-05-25T08:37:29.434Z,26.55
2023-05-25T08:39:56.941Z,26.64
2023-05-25T08:42:24.431Z,26.47
2023-05-25T08:44:51.605Z,26.72
2023-05-25T08:47:20.519Z,27.02
2023-05-25T08:49:48.702Z,27.02
2023-05-25T08:52:16.213Z,26.94
2023-05-25T08:54:44.240Z,27.11
2023-05-25T08:57:20.935Z,27.24
2023-05-25T08:59:51.616Z,27.24
2023-05-25T09:02:21.709Z,27.30
2023-05-25T09:04:49.363Z,27.39
2023-05-25T09:07:16.686Z,27.53
2023-05-25T09:09:44.176Z,27.44
2023-05-25T09:12:11.761Z,27.45
2023-05-25T09:14:45.608Z,27.47
2023-05-25T09:17:16.932Z,27.40
2023-05-25T09:19:44.382Z,27.40
2023-05-25T09:22:15.963Z,27.62
2023-05-25T09:24:45.271Z,27.63
2023-05-25T09:27:13.800Z,27.66
2023-05-25T09:29:41.591Z,27.99
2023-05-25T09:32:09.217Z,28.22
2023-05-25T09:34:36.555Z,28.04
2023-05-25T09:37:04.420Z,28.21
2023-05-25T09:39:32.318Z,28.24
2023-05-25T09:41:59.599Z,28.25
2023-05-25T09:44:26.970Z,27.93
2023-05-25T09:46:54.458Z,27.91
2023-05-25T09:49:21.719Z,27.70
2023-05-25T09:51:49.328Z,27.83
2023-05-25T09:54:16.877Z,27.77
2023-05-25T09:56:44.140Z,27.62
2023-05-25T09:59:11.798Z,27.37
2023-05-25T10:01:40.163Z,27.60
2023-05-25T10:04:09.261Z,27.79
2023-05-25T10:06:37.389Z,27.74
2023-05-25T10:09:04.934Z,27.66
2023-05-25T10:11:32.583Z,27.56
2023-05-25T10:14:03.806Z,27.58
2023-05-25T10:16:31.221Z,27.20
2023-05-25T10:19:01.698Z,27.11
2023-05-25T10:21:29.472Z,27.19
2023-05-25T10:24:01.082Z,27.24
2023-05-25T10:26:28.707Z,27.44
2023-05-25T10:28:56.829Z,27.63
2023-05-25T10:31:28.196Z,27.63
2023-05-25T10:33:56.268Z,27.34
2023-05-25T10:36:23.541Z,27.64
2023-05-25T10:38:51.168Z,27.79
2023-05-25T10:41:20.301Z,27.57
2023-05-25T10:43:47.817Z,27.55
2023-05-25T10:46:15.258Z,27.62
2023-05-25T10:48:46.663Z,27.66
2023-05-25T10:51:14.338Z,27.78
2023-05-25T10:53:45.963Z,27.71
2023-05-25T10:56:14.357Z,27.87
2023-05-25T10:58:46.398Z,28.03
2023-05-25T11:01:15.155Z,27.97
2023-05-25T11:03:58.193Z,27.99
2023-05-25T11:06:40.261Z,27.92
2023-05-25T11:09:07.763Z,27.71
2023-05-25T11:11:47.370Z,27.73
2023-05-25T11:14:21.093Z,27.87
2023-05-25T11:17:04.194Z,28.03
2023-05-25T11:19:44.554Z,28.06
2023-05-25T11:22:16.033Z,27.97
2023-05-25T11:24:45.157Z,27.98
2023-05-25T11:27:12.673Z,28.03
2023-05-25T11:29:40.952Z,28.15
2023-05-25T11:32:14.405Z,28.24
2023-05-25T11:34:46.559Z,28.25
2023-05-25T11:37:16.152Z,28.39
2023-05-25T11:39:46.719Z,28.69
2023-05-25T11:42:13.903Z,28.64
2023-05-25T11:44:41.465Z,28.36
2023-05-25T11:47:13.277Z,28.14
2023-05-25T11:49:42.073Z,27.98
2023-05-25T11:52:10.308Z,28.06
2023-05-25T11:54:39.919Z,28.11
2023-05-25T11:57:14.135Z,28.35
2023-05-25T11:59:41.813Z,28.43
2023-05-25T12:02:09.067Z,28.57
2023-05-25T12:04:37.061Z,28.70
2023-05-25T12:07:04.976Z,28.55
2023-05-25T12:09:32.501Z,28.56
2023-05-25T12:12:00.770Z,28.45
2023-05-25T12:14:28.032Z,28.36
2023-05-25T12:16:55.406Z,28.23
2023-05-25T12:19:23.456Z,28.47
2023-05-25T12:21:51.774Z,28.68
2023-05-25T12:24:19.261Z,28.33
2023-05-25T12:26:47.415Z,28.26
2023-05-25T12:29:14.813Z,28.21
2023-05-25T12:31:42.110Z,28.34
2023-05-25T12:34:14.133Z,28.49
2023-05-25T12:36:44.583Z,28.66
2023-05-25T12:39:13.243Z,28.65
2023-05-25T12:41:44.582Z,28.60
2023-05-25T12:44:21.480Z,28.49
2023-05-25T12:46:49.564Z,28.41
2023-05-25T12:49:30.532Z,28.59
2023-05-25T12:51:58.346Z,28.60
2023-05-25T12:54:35.823Z,28.53
2023-05-25T12:57:03.965Z,28.22
2023-05-25T12:59:31.603Z,28.21
2023-05-25T13:01:58.850Z,28.32
2023-05-25T13:04:26.252Z,28.52
2023-05-25T13:06:54.139Z,28.41
2023-05-25T13:09:23.623Z,28.61
2023-05-25T13:11:50.884Z,28.74
2023-05-25T13:14:18.386Z,28.73
2023-05-25T13:16:46.280Z,28.94
2023-05-25T13:19:13.639Z,29.02
2023-05-25T13:21:41.092Z,29.16
2023-05-25T13:24:08.671Z,28.93
2023-05-25T13:26:36.217Z,28.79
2023-05-25T13:29:03.746Z,28.59
2023-05-25T13:31:31.068Z,28.50
2023-05-25T13:33:59.046Z,28.28
2023-05-25T13:36:26.542Z,28.25
2023-05-25T13:38:53.916Z,28.41
2023-05-25T13:41:21.244Z,28.17
2023-05-25T13:43:48.836Z,28.17
2023-05-25T13:46:30.057Z,28.18
2023-05-25T13:49:01.550Z,27.99
2023-05-25T13:51:28.838Z,28.13
2023-05-25T13:53:56.085Z,28.22
2023-05-25T13:56:23.925Z,28.19
2023-05-25T13:58:51.933Z,28.13
2023-05-25T14:01:19.338Z,28.26
2023-05-25T14:03:47.086Z,28.41
2023-05-25T14:06:14.754Z,28.53
2023-05-25T14:08:41.928Z,28.59
2023-05-25T14:11:09.823Z,28.60
2023-05-25T14:13:37.072Z,28.49
2023-05-25T14:16:04.392Z,28.32
2023-05-25T14:18:31.970Z,28.28
2023-05-25T14:20:59.660Z,28.24
2023-05-25T14:23:26.956Z,28.01
2023-05-25T14:25:54.521Z,28.11
2023-05-25T14:28:21.802Z,28.14
2023-05-25T14:30:49.307Z,27.94
2023-05-25T14:33:17.343Z,28.10
2023-05-25T14:35:44.889Z,28.05
2023-05-25T14:38:12.290Z,27.87
2023-05-25T14:40:39.788Z,27.90
2023-05-25T14:43:07.189Z,27.97
2023-05-25T14:45:34.383Z,27.98
2023-05-25T14:48:15.463Z,28.01
2023-05-25T14:50:44.896Z,27.90
2023-05-25T14:53:12.433Z,27.88
2023-05-25T14:55:40.887Z,27.92
2023-05-25T14:58:08.174Z,27.86
2023-05-25T15:00:35.830Z,27.94
2023-05-25T15:03:03.165Z,27.93
2023-05-25T15:05:30.994Z,28.00
2023-05-25T15:07:59.053Z,28.11
2023-05-25T15:10:27.058Z,27.88
2023-05-25T15:12:54.276Z,27.91
2023-05-25T15:15:21.746Z,27.74
2023-05-25T15:17:49.007Z,27.72
2023-05-25T15:20:16.355Z,27.66
2023-05-25T15:22:44.549Z,27.67
2023-05-25T15:25:13.604Z,27.60
2023-05-25T15:27:42.525Z,27.51
2023-05-25T15:30:10.302Z,27.51
2023-05-25T15:32:37.539Z,27.44
2023-05-25T15:35:04.906Z,27.20
2023-05-25T15:37:32.413Z,27.46
2023-05-25T15:39:59.873Z,27.47
2023-05-25T15:42:27.097Z,27.48
2023-05-25T15:44:54.618Z,27.48
2023-05-25T15:47:22.057Z,27.18
2023-05-25T15:49:49.377Z,27.30
2023-05-25T15:52:17.202Z,27.03
2023-05-25T15:54:44.371Z,26.90
2023-05-25T15:57:11.562Z,27.03
2023-05-25T15:59:39.053Z,26.90
2023-05-25T16:02:06.676Z,27.06
2023-05-25T16:32:27.658Z,24.55
2023-05-25T16:34:55.820Z,24.55
2023-05-25T16:37:23.543Z,24.72
2023-05-25T16:39:51.038Z,25.01
2023-05-25T16:42:18.799Z,25.34
2023-05-25T16:44:46.254Z,25.38
2023-05-25T16:47:13.839Z,25.57
2023-05-25T16:49:41.570Z,25.72
2023-05-25T16:52:10.023Z,25.92
2023-05-25T16:54:37.601Z,25.95
2023-05-25T16:57:06.927Z,25.95
2023-05-25T16:59:34.387Z,25.90
2023-05-25T17:02:02.145Z,25.82
2023-05-25T17:04:29.978Z,25.99
2023-05-25T17:06:57.385Z,25.97
2023-05-25T17:09:25.312Z,26.03
2023-05-25T17:11:53.820Z,26.07
2023-05-25T17:14:21.590Z,25.97
2023-05-25T17:16:49.392Z,25.91
2023-05-25T17:19:17.210Z,25.91
2023-05-25T17:21:44.771Z,26.08
2023-05-25T17:24:12.222Z,25.94
2023-05-25T17:26:40.036Z,25.80
2023-05-25T17:29:07.555Z,25.80
2023-05-25T17:31:35.116Z,25.78
2023-05-25T17:34:03.168Z,25.74
2023-05-25T17:36:30.851Z,25.68
2023-05-25T17:38:58.384Z,25.68
2023-05-25T17:41:26.426Z,25.59
2023-05-25T17:43:53.924Z,25.54
2023-05-25T17:46:21.928Z,25.55
2023-05-25T17:48:49.648Z,25.45
2023-05-25T17:51:18.376Z,25.46
2023-05-25T17:53:45.766Z,25.47
2023-05-25T17:56:13.470Z,25.49
2023-05-25T17:58:47.112Z,25.58
2023-05-25T18:01:15.710Z,25.48
2023-05-25T18:03:43.754Z,25.33
2023-05-25T18:06:11.272Z,25.47
2023-05-25T18:08:38.706Z,25.43
2023-05-25T18:11:06.587Z,25.31
2023-05-25T18:13:34.021Z,25.28
2023-05-25T18:16:01.459Z,25.15
2023-05-25T18:18:29.324Z,25.24
2023-05-25T18:20:56.808Z,25.22
2023-05-25T18:23:24.287Z,25.10
2023-05-25T18:25:52.679Z,25.13
2023-05-25T18:28:20.149Z,25.13
2023-05-25T18:30:47.664Z,25.03
2023-05-25T18:33:16.376Z,24.99
2023-05-25T18:35:44.071Z,24.95
2023-05-25T18:38:12.103Z,25.00
2023-05-25T18:40:39.810Z,24.95
2023-05-25T18:43:07.868Z,24.91
2023-05-25T18:45:35.336Z,24.76
2023-05-25T18:48:09.028Z,24.81
2023-05-25T18:50:37.668Z,24.75
2023-05-25T18:53:07.687Z,24.81
2023-05-25T18:55:35.142Z,24.74
2023-05-25T18:58:02.635Z,24.79
2023-05-25T19:00:30.679Z,24.77
2023-05-25T19:02:58.245Z,24.70
2023-05-25T19:05:25.963Z,24.64
2023-05-25T19:07:59.099Z,24.63
2023-05-25T19:10:27.606Z,24.59
2023-05-25T19:12:55.393Z,24.49
2023-05-25T19:15:23.920Z,24.39
2023-05-25T19:17:51.406Z,24.41
2023-05-25T19:20:19.274Z,24.39
2023-05-25T19:22:47.141Z,24.29
2023-05-25T19:25:14.841Z,24.22
2023-05-25T19:27:42.620Z,24.18
2023-05-25T19:30:10.401Z,24.15
2023-05-25T19:32:37.906Z,24.08
2023-05-25T19:35:05.858Z,24.13
2023-05-25T19:37:33.294Z,23.93
2023-05-25T19:40:00.838Z,23.95
2023-05-25T19:42:31.099Z,23.91
2023-05-25T19:44:59.799Z,23.88
2023-05-25T19:47:27.363Z,23.85
2023-05-25T19:49:55.178Z,23.82
2023-05-25T19:52:22.679Z,23.78
2023-05-25T19:54:51.288Z,23.66
2023-05-25T19:57:20.117Z,23.60
2023-05-25T19:59:47.628Z,23.62
2023-05-25T20:02:15.107Z,23.58
2023-05-25T20:04:42.898Z,23.53
2023-05-25T20:07:10.425Z,23.49
2023-05-25T20:09:38.913Z,23.40
2023-05-25T20:12:07.230Z,23.30
2023-05-25T20:14:34.748Z,23.31
2023-05-25T20:17:02.233Z,23.34
2023-05-25T20:19:30.063Z,23.26
2023-05-25T20:21:59.565Z,23.18
2023-05-25T20:24:27.038Z,23.21
2023-05-25T20:26:56.803Z,23.09
2023-05-25T20:29:24.484Z,23.13
2023-05-25T20:31:52.610Z,22.98
2023-05-25T20:34:20.736Z,23.00
2023-05-25T20:36:48.280Z,22.99
2023-05-25T20:39:16.112Z,22.96
2023-05-25T20:41:44.065Z,22.96
2023-05-25T20:44:11.542Z,22.88
2023-05-25T20:46:38.978Z,22.72
2023-05-25T20:49:06.797Z,22.74
2023-05-25T20:51:34.736Z,22.85
2023-05-25T20:54:02.431Z,22.77
2023-05-25T20:56:30.237Z,22.75
2023-05-25T20:58:57.732Z,22.75
2023-05-25T21:01:25.485Z,22.77
2023-05-25T21:03:53.529Z,22.77
2023-05-25T21:06:21.127Z,22.75
2023-05-25T21:08:48.560Z,22.69
2023-05-25T21:11:16.521Z,22.62
2023-05-25T21:13:43.963Z,22.61
2023-05-25T21:16:11.825Z,22.73
2023-05-25T21:18:39.608Z,22.47
2023-05-25T21:21:07.095Z,22.59
2023-05-25T21:23:34.783Z,22.51
2023-05-25T21:26:02.908Z,22.54
2023-05-25T21:28:30.539Z,22.50
2023-05-25T21:30:57.981Z,22.47
2023-05-25T21:33:25.946Z,22.44
2023-05-25T21:35:53.386Z,22.45
2023-05-25T21:38:20.797Z,22.42
2023-05-25T21:40:48.505Z,22.42
2023-05-25T21:43:15.946Z,22.44
2023-05-25T21:45:43.724Z,22.41
2023-05-25T21:48:11.700Z,22.39
2023-05-25T21:50:39.886Z,22.39
2023-05-25T21:53:07.322Z,22.40
2023-05-25T21:55:35.164Z,22.36
2023-05-25T21:58:02.562Z,22.29
2023-05-25T22:00:30.288Z,22.24
2023-05-25T22:02:58.220Z,22.30
2023-05-25T22:05:25.951Z,22.33
2023-05-25T22:07:55.029Z,22.27
2023-05-25T22:10:23.483Z,22.31
2023-05-25T22:12:51.220Z,22.29
2023-05-25T22:15:18.646Z,22.33
2023-05-25T22:17:46.492Z,22.22
2023-05-25T22:20:14.233Z,22.15
2023-05-25T22:22:42.348Z,22.18
2023-05-25T22:25:10.639Z,22.16
2023-05-25T22:27:38.601Z,22.13
2023-05-25T22:30:07.004Z,21.98
2023-05-25T22:32:35.190Z,21.97
2023-05-25T22:35:02.847Z,21.96
2023-05-25T22:37:30.342Z,21.84
2023-05-25T22:39:58.066Z,21.87
2023-05-25T22:42:25.680Z,21.87
2023-05-25T22:44:53.152Z,21.82
2023-05-25T22:47:20.936Z,21.81
2023-05-25T22:49:48.405Z,21.80
2023-05-25T22:52:16.120Z,21.80
2023-05-25T22:54:43.880Z,21.82
2023-05-25T22:57:11.345Z,21.74
2023-05-25T22:59:38.812Z,21.67
2023-05-25T23:02:07.441Z,21.73
2023-05-25T23:04:38.104Z,21.66
2023-05-25T23:07:05.768Z,21.62
2023-05-25T23:09:33.465Z,21.70
2023-05-25T23:12:01.740Z,21.56
2023-05-25T23:14:30.510Z,21.56
2023-05-25T23:16:58.036Z,21.56
2023-05-25T23:19:25.804Z,21.57
2023-05-25T23:21:54.367Z,21.51
2023-05-25T23:24:21.831Z,21.57
2023-05-25T23:26:49.570Z,21.57
2023-05-25T23:29:17.338Z,21.50
2023-05-25T23:31:44.824Z,21.51
2023-05-25T23:34:12.311Z,21.47
2023-05-25T23:36:40.689Z,21.47
2023-05-25T23:39:08.182Z,21.44
2023-05-25T23:41:35.641Z,21.34
2023-05-25T23:44:03.323Z,21.33
2023-05-25T23:46:31.848Z,21.30
2023-05-25T23:48:59.351Z,21.22
2023-05-25T23:51:27.330Z,21.20
2023-05-25T23:53:54.755Z,21.16
2023-05-25T23:56:22.261Z,21.04
2023-05-25T23:58:50.012Z,21.07
